Time;durP1;ratioP1;P1;durP2;ratioP2;P2;SDS_P1;SDS_P2;PMS_P1;PMS_P2;Temp;Humidity;BMP_temperature;BMP_pressure;BME280_temperature;BME280_humidity;BME280_pressure;Samples;Min_cycle;Max_cycle;Signal;HPM_P1;HPM_P2
2023/05/12 00:00:38;;;;;;;4.25;2.75;;;22.60;50.70;;;;;;5034308;28;20021;-70
2023/05/12 00:03:04;;;;;;;3.55;2.40;;;22.60;50.80;;;;;;5035931;28;20108;-70
2023/05/12 00:05:30;;;;;;;3.55;2.20;;;22.60;50.80;;;;;;5037121;28;20183;-71
2023/05/12 00:07:56;;;;;;;3.80;2.50;;;22.60;50.80;;;;;;5036892;28;20112;-70
2023/05/12 00:10:21;;;;;;;4.45;2.45;;;22.60;50.80;;;;;;5036517;28;20033;-70
2023/05/12 00:12:47;;;;;;;3.97;2.50;;;22.60;50.80;;;;;;5039166;28;20083;-70
2023/05/12 00:15:13;;;;;;;3.22;2.17;;;22.60;50.80;;;;;;5036570;28;20037;-70
2023/05/12 00:17:38;;;;;;;4.38;2.42;;;22.60;50.80;;;;;;5036635;28;20123;-70
2023/05/12 00:20:05;;;;;;;3.80;2.38;;;22.60;50.80;;;;;;5035924;28;20033;-70
2023/05/12 00:22:30;;;;;;;4.00;2.30;;;22.60;50.80;;;;;;5039027;28;20024;-69
2023/05/12 00:24:56;;;;;;;4.22;2.30;;;22.60;50.90;;;;;;5036600;28;20032;-70
2023/05/12 00:27:22;;;;;;;3.80;2.25;;;22.50;50.80;;;;;;5037339;28;20045;-70
2023/05/12 00:29:47;;;;;;;3.90;2.40;;;22.50;50.80;;;;;;5037962;28;20061;-69
2023/05/12 00:32:13;;;;;;;4.03;2.35;;;22.50;50.80;;;;;;5036024;28;20837;-70
2023/05/12 00:34:39;;;;;;;5.25;2.47;;;22.50;50.80;;;;;;5037067;28;20029;-70
2023/05/12 00:37:05;;;;;;;4.13;2.30;;;22.50;50.80;;;;;;5038746;28;20091;-70
2023/05/12 00:39:30;;;;;;;4.28;2.33;;;22.50;50.80;;;;;;5038885;28;20103;-70
2023/05/12 00:41:57;;;;;;;3.92;2.50;;;22.50;50.90;;;;;;5038934;28;20410;-70
2023/05/12 00:44:23;;;;;;;4.13;2.40;;;22.50;50.90;;;;;;5038776;28;20021;-70
2023/05/12 00:46:49;;;;;;;3.20;2.03;;;22.50;50.90;;;;;;5039213;28;20037;-70
2023/05/12 00:49:15;;;;;;;3.40;2.30;;;22.50;50.90;;;;;;5041014;28;20478;-70
2023/05/12 00:51:41;;;;;;;3.53;2.38;;;22.50;50.90;;;;;;5039844;28;20029;-70
2023/05/12 00:54:07;;;;;;;3.17;2.13;;;22.40;50.90;;;;;;5042168;28;20053;-70
2023/05/12 00:56:38;;;;;;;3.72;2.10;;;22.50;50.90;;;;;;5042732;28;20067;-70
2023/05/12 00:59:07;;;;;;;3.42;2.25;;;22.50;50.90;;;;;;5038164;28;20113;-70
2023/05/12 01:01:33;;;;;;;4.32;2.40;;;22.50;51.00;;;;;;5038927;28;20097;-70
2023/05/12 01:04:00;;;;;;;3.97;2.15;;;22.40;50.90;;;;;;5040952;28;20447;-70
2023/05/12 01:06:41;;;;;;;3.35;2.10;;;22.50;50.90;;;;;;5047493;28;20064;-70
2023/05/12 01:09:07;;;;;;;3.33;2.17;;;22.40;50.90;;;;;;5040771;28;20025;-70
2023/05/12 01:11:33;;;;;;;3.85;2.40;;;22.40;50.90;;;;;;5041479;28;20510;-70
2023/05/12 01:13:58;;;;;;;3.22;2.00;;;22.40;50.90;;;;;;5037657;28;20025;-70
2023/05/12 01:16:32;;;;;;;3.20;2.13;;;22.40;50.90;;;;;;5040619;28;20056;-70
2023/05/12 01:18:59;;;;;;;3.65;2.08;;;22.40;51.00;;;;;;5039536;28;20026;-70
2023/05/12 01:21:24;;;;;;;4.00;2.30;;;22.40;51.00;;;;;;5041436;28;20029;-70
2023/05/12 01:23:56;;;;;;;3.65;2.10;;;22.40;51.00;;;;;;5040339;28;20434;-70
2023/05/12 01:26:22;;;;;;;3.70;2.20;;;22.30;51.00;;;;;;5043619;28;20053;-71
2023/05/12 01:28:49;;;;;;;3.28;2.00;;;22.40;51.00;;;;;;5041122;28;20103;-70
2023/05/12 01:31:16;;;;;;;3.53;1.80;;;22.40;51.00;;;;;;5038585;28;20140;-71
2023/05/12 01:33:42;;;;;;;3.60;2.40;;;22.40;51.00;;;;;;5039812;28;20519;-70
2023/05/12 01:36:07;;;;;;;3.50;2.15;;;22.40;51.00;;;;;;5040601;28;20364;-70
2023/05/12 01:38:33;;;;;;;2.80;1.83;;;22.30;51.00;;;;;;5040541;28;20025;-70
2023/05/12 01:40:59;;;;;;;2.92;1.85;;;22.30;51.50;;;;;;5039980;28;20564;-70
2023/05/12 01:43:24;;;;;;;3.97;2.33;;;22.30;51.00;;;;;;5039130;28;20120;-70
2023/05/12 01:45:50;;;;;;;3.55;2.00;;;22.30;51.00;;;;;;5037362;28;20112;-70
2023/05/12 01:48:15;;;;;;;3.30;2.15;;;22.30;51.00;;;;;;5040291;28;20518;-71
2023/05/12 01:50:41;;;;;;;3.72;1.92;;;22.30;51.00;;;;;;5038470;28;20135;-70
2023/05/12 01:53:09;;;;;;;3.38;2.10;;;22.30;51.00;;;;;;5041744;28;20028;-70
2023/05/12 01:55:35;;;;;;;3.75;2.10;;;22.30;51.10;;;;;;5039875;28;20469;-70
2023/05/12 01:58:00;;;;;;;3.83;2.15;;;22.30;51.00;;;;;;5041820;28;20029;-70
2023/05/12 02:00:26;;;;;;;3.45;2.00;;;22.30;51.00;;;;;;5040304;28;20033;-70
2023/05/12 02:02:52;;;;;;;2.78;1.90;;;22.30;51.10;;;;;;5039033;28;20096;-70
2023/05/12 02:05:17;;;;;;;3.33;1.85;;;22.20;51.00;;;;;;5040796;28;20075;-70
2023/05/12 02:07:43;;;;;;;3.20;2.00;;;22.20;51.00;;;;;;5038002;28;20037;-70
2023/05/12 02:10:09;;;;;;;3.17;2.00;;;22.20;51.60;;;;;;5046280;28;20362;-70
2023/05/12 02:12:35;;;;;;;3.40;2.05;;;22.20;51.00;;;;;;5037832;28;20025;-69
2023/05/12 02:15:00;;;;;;;3.35;1.92;;;22.20;51.00;;;;;;5040832;28;20393;-70
2023/05/12 02:17:27;;;;;;;3.00;1.80;;;22.20;51.10;;;;;;5042857;28;20056;-69
2023/05/12 02:19:53;;;;;;;3.00;1.80;;;22.20;51.10;;;;;;5040791;28;20367;-69
2023/05/12 02:22:18;;;;;;;2.90;1.90;;;22.20;51.10;;;;;;5040728;28;20044;-69
2023/05/12 02:24:44;;;;;;;3.00;2.00;;;22.20;51.10;;;;;;5036243;28;20516;-70
2023/05/12 02:27:10;;;;;;;2.83;1.83;;;22.20;51.10;;;;;;5036174;28;20377;-70
2023/05/12 02:29:36;;;;;;;3.03;2.05;;;22.20;51.10;;;;;;5037106;28;20171;-70
2023/05/12 02:32:03;;;;;;;3.65;2.00;;;22.20;51.10;;;;;;5037160;28;20013;-70
2023/05/12 02:34:28;;;;;;;2.83;1.88;;;22.20;51.10;;;;;;5040456;28;20511;-70
2023/05/12 02:36:54;;;;;;;3.08;1.90;;;22.20;51.10;;;;;;5040726;28;20053;-70
2023/05/12 02:39:20;;;;;;;3.30;1.85;;;22.20;51.10;;;;;;5037778;28;20448;-70
2023/05/12 02:41:45;;;;;;;3.22;1.90;;;22.20;51.20;;;;;;5040437;28;20034;-70
2023/05/12 02:44:11;;;;;;;2.80;1.70;;;22.20;51.10;;;;;;5036924;28;20087;-70
2023/05/12 02:46:36;;;;;;;3.08;1.73;;;22.20;51.10;;;;;;5039768;28;20060;-71
2023/05/12 02:49:03;;;;;;;2.85;1.75;;;22.20;51.20;;;;;;5037579;28;20033;-70
2023/05/12 02:51:29;;;;;;;2.88;1.77;;;22.10;51.10;;;;;;5040181;28;20510;-71
2023/05/12 02:53:54;;;;;;;3.03;1.70;;;22.20;51.20;;;;;;5039977;28;20051;-70
2023/05/12 02:56:21;;;;;;;2.50;1.70;;;22.10;51.10;;;;;;5038421;28;20033;-70
2023/05/12 02:58:47;;;;;;;3.72;1.80;;;22.10;51.10;;;;;;5036942;28;20048;-70
2023/05/12 03:01:13;;;;;;;3.05;1.55;;;22.10;51.10;;;;;;5039774;28;20022;-70
2023/05/12 03:03:39;;;;;;;2.70;1.60;;;22.10;51.10;;;;;;5037055;28;20435;-70
2023/05/12 03:06:05;;;;;;;2.88;1.73;;;22.10;51.10;;;;;;5038098;28;20421;-71
2023/05/12 03:08:31;;;;;;;3.03;1.80;;;22.10;51.20;;;;;;5037390;28;20102;-70
2023/05/12 03:10:57;;;;;;;3.00;1.80;;;22.10;51.10;;;;;;5036176;28;20056;-70
2023/05/12 03:13:23;;;;;;;2.60;1.80;;;22.10;51.10;;;;;;5035147;28;20029;-70
2023/05/12 03:15:48;;;;;;;2.78;1.67;;;22.10;51.10;;;;;;5036417;28;20024;-69
2023/05/12 03:18:14;;;;;;;2.80;1.70;;;22.10;51.20;;;;;;5039157;28;20143;-70
2023/05/12 03:20:40;;;;;;;3.03;1.80;;;22.10;51.10;;;;;;5036155;28;20025;-70
2023/05/12 03:23:05;;;;;;;2.88;1.77;;;22.10;51.20;;;;;;5035302;28;20124;-70
2023/05/12 03:25:31;;;;;;;3.13;1.83;;;22.10;51.20;;;;;;5037403;28;20044;-70
2023/05/12 03:27:56;;;;;;;2.95;1.77;;;22.10;51.20;;;;;;5038913;28;20473;-70
2023/05/12 03:30:22;;;;;;;2.47;1.45;;;22.10;51.20;;;;;;5036153;28;20430;-70
2023/05/12 03:32:47;;;;;;;2.50;1.50;;;22.10;51.20;;;;;;5036846;28;20358;-70
2023/05/12 03:35:13;;;;;;;2.80;1.60;;;22.00;51.20;;;;;;5037071;28;20033;-71
2023/05/12 03:37:39;;;;;;;2.15;1.38;;;22.10;51.20;;;;;;5044092;28;20017;-70
2023/05/12 03:40:05;;;;;;;2.63;1.60;;;22.00;51.10;;;;;;5035551;28;20075;-69
2023/05/12 03:42:31;;;;;;;2.97;1.63;;;22.00;51.20;;;;;;5038112;28;20042;-70
2023/05/12 03:44:56;;;;;;;2.10;1.50;;;22.00;51.20;;;;;;5034691;28;20479;-70
2023/05/12 03:47:22;;;;;;;2.67;1.52;;;22.00;51.20;;;;;;5036896;28;20036;-70
2023/05/12 03:49:47;;;;;;;2.60;1.50;;;22.00;51.20;;;;;;5037964;28;20127;-70
2023/05/12 03:52:13;;;;;;;3.00;1.40;;;22.00;51.20;;;;;;5037907;28;20025;-70
2023/05/12 03:54:39;;;;;;;2.80;1.73;;;22.00;51.20;;;;;;5037568;28;20025;-70
2023/05/12 03:57:05;;;;;;;2.85;1.50;;;22.00;51.20;;;;;;5038333;28;20032;-70
2023/05/12 03:59:31;;;;;;;2.53;1.50;;;22.00;51.20;;;;;;5036905;28;20037;-70
2023/05/12 04:01:57;;;;;;;2.35;1.40;;;22.00;51.20;;;;;;5036158;28;20040;-70
2023/05/12 04:04:22;;;;;;;2.63;1.60;;;22.00;51.20;;;;;;5035505;28;20028;-70
2023/05/12 04:06:48;;;;;;;2.20;1.40;;;22.00;51.20;;;;;;5037837;28;20029;-69
2023/05/12 04:09:15;;;;;;;2.50;1.40;;;22.00;51.20;;;;;;5037918;28;20029;-70
2023/05/12 04:11:41;;;;;;;2.83;1.70;;;22.00;51.30;;;;;;5038103;28;20025;-70
2023/05/12 04:14:06;;;;;;;2.85;1.63;;;21.90;51.20;;;;;;5039923;28;20033;-69
2023/05/12 04:16:34;;;;;;;2.55;1.55;;;22.00;51.30;;;;;;5040912;28;20115;-70
2023/05/12 04:19:00;;;;;;;2.38;1.48;;;22.00;51.30;;;;;;5042308;28;20463;-70
2023/05/12 04:21:26;;;;;;;2.47;1.60;;;22.00;51.30;;;;;;5042792;28;20021;-70
2023/05/12 04:23:51;;;;;;;2.30;1.40;;;22.00;51.20;;;;;;5042246;28;20025;-70
2023/05/12 04:26:17;;;;;;;2.92;1.48;;;22.00;51.20;;;;;;5038273;28;20026;-69
2023/05/12 04:28:43;;;;;;;2.30;1.38;;;22.00;51.20;;;;;;5043967;28;20036;-69
2023/05/12 04:31:08;;;;;;;1.90;1.30;;;21.90;51.20;;;;;;5038266;28;20017;-70
2023/05/12 04:33:34;;;;;;;2.80;1.50;;;21.90;51.20;;;;;;5043405;28;20376;-69
2023/05/12 04:36:00;;;;;;;2.88;1.50;;;21.90;51.20;;;;;;5042763;28;20025;-68
2023/05/12 04:38:26;;;;;;;2.30;1.40;;;21.90;51.20;;;;;;5041842;28;20036;-69
2023/05/12 04:40:59;;;;;;;2.55;1.50;;;21.90;51.20;;;;;;5040462;28;20109;-69
2023/05/12 04:43:25;;;;;;;2.53;1.60;;;21.90;51.20;;;;;;5047207;28;20025;-69
2023/05/12 04:45:52;;;;;;;3.00;1.60;;;21.90;51.20;;;;;;5037928;28;20063;-69
2023/05/12 04:48:18;;;;;;;2.03;1.23;;;21.90;51.20;;;;;;5042038;28;20136;-69
2023/05/12 04:50:44;;;;;;;1.75;1.23;;;21.90;51.20;;;;;;5039518;28;20021;-69
2023/05/12 04:53:10;;;;;;;2.08;1.38;;;21.90;51.20;;;;;;5039827;28;20029;-69
2023/05/12 04:55:36;;;;;;;1.90;1.20;;;21.90;51.20;;;;;;5041096;28;20051;-69
2023/05/12 04:58:02;;;;;;;1.98;1.30;;;21.90;51.20;;;;;;5039690;28;20025;-70
2023/05/12 05:00:28;;;;;;;1.48;1.02;;;21.90;51.20;;;;;;5040890;28;20110;-69
2023/05/12 05:02:53;;;;;;;1.83;1.10;;;21.90;51.30;;;;;;5038381;28;20507;-70
2023/05/12 05:05:19;;;;;;;2.63;1.35;;;21.90;51.20;;;;;;5038243;28;20029;-69
2023/05/12 05:07:44;;;;;;;2.13;1.38;;;21.90;51.20;;;;;;5038850;28;20029;-69
2023/05/12 05:10:10;;;;;;;2.10;1.20;;;21.90;51.20;;;;;;5038935;28;20099;-69
2023/05/12 05:12:36;;;;;;;1.65;1.02;;;21.90;51.20;;;;;;5040462;28;20326;-69
2023/05/12 05:15:01;;;;;;;1.73;1.10;;;21.90;51.20;;;;;;5041763;28;20029;-69
2023/05/12 05:17:27;;;;;;;1.80;1.10;;;21.90;51.30;;;;;;5039077;28;20512;-69
2023/05/12 05:19:52;;;;;;;2.22;1.27;;;21.90;51.30;;;;;;5041345;28;20033;-69
2023/05/12 05:22:18;;;;;;;2.30;1.27;;;21.80;51.20;;;;;;5039262;28;20103;-70
2023/05/12 05:24:44;;;;;;;2.00;1.20;;;21.80;51.20;;;;;;5040701;28;20029;-69
2023/05/12 05:27:09;;;;;;;2.00;1.30;;;21.90;51.30;;;;;;5041226;28;20032;-69
2023/05/12 05:29:36;;;;;;;1.92;1.20;;;21.90;51.30;;;;;;5040414;28;20350;-69
2023/05/12 05:32:03;;;;;;;1.98;1.20;;;21.80;51.20;;;;;;5035683;28;20032;-70
2023/05/12 05:34:28;;;;;;;2.15;1.27;;;21.90;51.30;;;;;;5039867;28;20538;-70
2023/05/12 05:36:54;;;;;;;1.80;1.10;;;21.80;51.20;;;;;;5039067;28;20057;-70
2023/05/12 05:39:20;;;;;;;2.10;1.20;;;21.80;51.20;;;;;;5040840;28;20105;-69
2023/05/12 05:41:45;;;;;;;1.45;1.08;;;21.80;51.30;;;;;;5038383;28;20595;-69
2023/05/12 05:44:11;;;;;;;2.10;1.30;;;21.80;51.30;;;;;;5041173;28;20068;-69
2023/05/12 05:46:36;;;;;;;2.22;1.13;;;21.80;51.30;;;;;;5037571;28;20320;-69
2023/05/12 05:49:02;;;;;;;1.85;1.10;;;21.80;51.30;;;;;;5042766;28;20483;-70
2023/05/12 05:51:28;;;;;;;2.40;1.30;;;21.80;51.30;;;;;;5040774;28;20067;-69
2023/05/12 05:53:53;;;;;;;2.00;1.10;;;21.80;51.30;;;;;;5040987;28;20056;-70
2023/05/12 05:56:19;;;;;;;1.88;1.20;;;21.80;51.30;;;;;;5041881;28;20120;-69
2023/05/12 05:58:45;;;;;;;2.00;1.15;;;21.80;51.30;;;;;;5040918;28;20167;-70
2023/05/12 06:01:10;;;;;;;2.20;1.10;;;21.80;51.30;;;;;;5038847;28;20057;-70
2023/05/12 06:03:36;;;;;;;2.63;1.40;;;21.80;51.30;;;;;;5039345;28;20029;-70
2023/05/12 06:06:02;;;;;;;1.98;1.13;;;21.70;51.20;;;;;;5041535;28;20033;-70
2023/05/12 06:08:27;;;;;;;2.30;1.20;;;21.70;51.20;;;;;;5039724;28;20063;-69
2023/05/12 06:10:53;;;;;;;2.00;1.20;;;21.70;51.20;;;;;;5037878;28;20027;-70
2023/05/12 06:13:18;;;;;;;2.05;1.30;;;21.70;51.30;;;;;;5038879;28;20026;-70
2023/05/12 06:15:44;;;;;;;2.25;1.20;;;21.70;51.30;;;;;;5039876;28;20457;-70
2023/05/12 06:18:10;;;;;;;2.03;1.10;;;21.70;51.30;;;;;;5038313;28;20033;-70
2023/05/12 06:20:35;;;;;;;2.92;1.30;;;21.70;51.30;;;;;;5039152;28;20109;-70
2023/05/12 06:23:01;;;;;;;2.25;1.20;;;21.70;51.20;;;;;;5037893;28;20143;-69
2023/05/12 06:25:26;;;;;;;2.05;1.25;;;21.70;51.20;;;;;;5038490;28;20033;-70
2023/05/12 06:27:52;;;;;;;1.52;1.13;;;21.70;51.20;;;;;;5038843;28;20040;-70
2023/05/12 06:30:18;;;;;;;1.13;0.85;;;21.70;51.20;;;;;;5047162;28;20044;-70
2023/05/12 06:32:43;;;;;;;2.03;1.13;;;21.70;51.20;;;;;;5035013;28;20035;-69
2023/05/12 06:35:09;;;;;;;1.98;1.20;;;21.70;51.30;;;;;;5038698;28;20138;-69
2023/05/12 06:37:35;;;;;;;1.73;1.00;;;21.70;51.30;;;;;;5041066;28;21078;-69
2023/05/12 06:40:00;;;;;;;1.63;1.00;;;21.70;51.20;;;;;;5036238;28;20032;-69
2023/05/12 06:42:26;;;;;;;2.03;1.10;;;21.70;51.20;;;;;;5037473;28;20031;-70
2023/05/12 06:44:51;;;;;;;1.58;1.00;;;21.70;51.20;;;;;;5038561;28;20033;-70
2023/05/12 06:47:17;;;;;;;2.53;1.10;;;21.70;51.30;;;;;;5038852;28;20071;-70
2023/05/12 06:49:43;;;;;;;1.77;1.02;;;21.70;51.30;;;;;;5038883;28;20459;-69
2023/05/12 06:52:08;;;;;;;1.88;1.20;;;21.70;51.20;;;;;;5038165;28;20157;-70
2023/05/12 06:54:34;;;;;;;2.22;1.00;;;21.70;51.20;;;;;;5039045;28;20053;-70
2023/05/12 06:57:00;;;;;;;2.33;1.25;;;21.70;51.30;;;;;;5038714;28;20033;-69
2023/05/12 06:59:25;;;;;;;1.60;1.10;;;21.70;51.20;;;;;;5037043;28;20094;-70
2023/05/12 07:01:51;;;;;;;1.55;1.00;;;21.70;51.20;;;;;;5033631;28;20026;-69
2023/05/12 07:04:16;;;;;;;1.92;1.20;;;21.70;51.30;;;;;;5037309;28;20469;-69
2023/05/12 07:06:42;;;;;;;1.60;0.98;;;21.70;51.20;;;;;;5037846;28;20075;-69
2023/05/12 07:09:08;;;;;;;2.13;0.95;;;21.60;51.20;;;;;;5037480;28;20026;-69
2023/05/12 07:11:33;;;;;;;1.70;1.00;;;21.70;51.20;;;;;;5039356;28;20029;-69
2023/05/12 07:13:59;;;;;;;1.55;1.10;;;21.60;51.20;;;;;;5037314;28;20160;-70
2023/05/12 07:16:24;;;;;;;1.90;1.00;;;21.70;51.20;;;;;;5039757;28;20021;-69
2023/05/12 07:18:50;;;;;;;2.25;0.90;;;21.70;51.20;;;;;;5037201;28;20092;-69
2023/05/12 07:21:16;;;;;;;1.73;1.10;;;21.70;51.30;;;;;;5037469;28;20033;-70
2023/05/12 07:23:42;;;;;;;2.03;1.10;;;21.60;51.20;;;;;;5037777;28;20526;-70
2023/05/12 07:26:08;;;;;;;2.20;1.13;;;21.60;51.20;;;;;;5035960;28;20331;-70
2023/05/12 07:28:35;;;;;;;1.77;1.10;;;21.60;51.20;;;;;;5034104;28;20029;-70
2023/05/12 07:31:02;;;;;;;1.85;1.10;;;21.60;51.20;;;;;;5036346;28;20079;-70
2023/05/12 07:33:28;;;;;;;1.88;1.10;;;21.60;51.20;;;;;;5036062;28;20036;-69
2023/05/12 07:35:54;;;;;;;1.50;0.93;;;21.60;51.20;;;;;;5036111;28;20450;-70
2023/05/12 07:38:19;;;;;;;1.55;1.02;;;21.60;51.20;;;;;;5038190;28;20136;-70
2023/05/12 07:40:45;;;;;;;1.80;1.00;;;21.60;51.20;;;;;;5037316;28;20032;-70
2023/05/12 07:43:11;;;;;;;1.58;1.02;;;21.60;51.20;;;;;;5036382;28;20123;-69
2023/05/12 07:45:36;;;;;;;2.05;1.10;;;21.60;51.20;;;;;;5035680;28;20037;-70
2023/05/12 07:48:02;;;;;;;1.40;0.80;;;21.60;51.20;;;;;;5033495;28;20025;-69
2023/05/12 07:50:28;;;;;;;1.50;1.00;;;21.60;51.20;;;;;;5035352;28;20026;-69
2023/05/12 07:52:54;;;;;;;1.33;0.90;;;21.60;51.20;;;;;;5037246;28;20024;-69
2023/05/12 07:55:21;;;;;;;2.58;1.10;;;21.60;51.20;;;;;;5034927;28;20091;-70
2023/05/12 07:57:48;;;;;;;1.80;1.10;;;21.60;51.20;;;;;;5038823;28;20064;-70
2023/05/12 08:00:14;;;;;;;3.08;1.20;;;21.60;51.10;;;;;;5037263;28;20087;-69
2023/05/12 08:02:41;;;;;;;1.55;0.90;;;21.60;51.20;;;;;;5037071;28;20079;-70
2023/05/12 08:05:10;;;;;;;1.48;0.90;;;21.60;51.20;;;;;;5038808;28;20033;-70
2023/05/12 08:07:42;;;;;;;1.33;0.90;;;21.60;51.10;;;;;;5035251;28;20109;-70
2023/05/12 08:10:09;;;;;;;1.88;1.10;;;21.60;51.10;;;;;;5035447;28;20104;-70
2023/05/12 08:12:35;;;;;;;2.03;1.10;;;21.60;51.20;;;;;;5036560;28;20099;-69
2023/05/12 08:15:00;;;;;;;1.40;0.80;;;21.60;51.20;;;;;;5038319;28;20032;-69
2023/05/12 08:17:26;;;;;;;1.65;0.93;;;21.60;51.10;;;;;;5035510;28;20026;-70
2023/05/12 08:19:51;;;;;;;2.45;1.00;;;21.60;51.10;;;;;;5038893;28;20077;-69
2023/05/12 08:22:17;;;;;;;1.92;1.05;;;21.60;51.20;;;;;;5034495;28;20076;-69
2023/05/12 08:24:44;;;;;;;1.23;0.85;;;21.60;51.10;;;;;;5036857;28;20041;-69
2023/05/12 08:27:10;;;;;;;1.55;1.10;;;21.60;51.20;;;;;;5039656;28;20094;-68
2023/05/12 08:29:35;;;;;;;1.58;0.90;;;21.60;51.10;;;;;;5037010;28;20033;-70
2023/05/12 08:32:01;;;;;;;1.48;1.00;;;21.60;51.10;;;;;;5038638;28;20378;-69
2023/05/12 08:34:27;;;;;;;1.48;1.00;;;21.60;51.10;;;;;;5035827;28;20029;-69
2023/05/12 08:36:53;;;;;;;1.25;0.82;;;21.60;51.10;;;;;;5034396;28;20423;-70
2023/05/12 08:39:19;;;;;;;1.13;0.70;;;21.60;51.10;;;;;;5039254;28;20040;-70
2023/05/12 08:42:12;;;;;;;1.42;0.90;;;21.60;51.10;;;;;;5037307;28;20017;-70
2023/05/12 08:44:38;;;;;;;1.55;0.90;;;21.60;51.20;;;;;;5029877;28;20036;-70
2023/05/12 08:47:05;;;;;;;1.40;0.88;;;21.60;51.20;;;;;;5034328;28;20112;-70
2023/05/12 08:49:33;;;;;;;1.42;0.85;;;21.60;51.10;;;;;;5036808;28;20469;-70
2023/05/12 08:52:01;;;;;;;1.95;0.90;;;21.50;51.10;;;;;;5036468;28;20679;-70
2023/05/12 08:54:28;;;;;;;1.85;0.95;;;21.60;51.20;;;;;;5035798;28;20052;-69
2023/05/12 08:56:54;;;;;;;1.40;0.90;;;21.60;51.70;;;;;;5036837;28;20029;-70
2023/05/12 08:59:21;;;;;;;1.75;1.00;;;21.60;51.10;;;;;;5035408;28;20036;-70
2023/05/12 09:01:48;;;;;;;1.30;0.90;;;21.50;51.10;;;;;;5038585;28;20068;-69
2023/05/12 09:04:14;;;;;;;2.05;1.00;;;21.60;51.10;;;;;;5038141;28;20179;-69
2023/05/12 09:06:41;;;;;;;1.38;0.90;;;21.60;51.10;;;;;;5042053;28;20029;-69
2023/05/12 09:09:06;;;;;;;1.70;0.90;;;21.60;51.10;;;;;;5041844;28;20029;-69
2023/05/12 09:11:32;;;;;;;1.67;0.98;;;21.50;51.10;;;;;;5043523;28;20132;-69
2023/05/12 09:14:01;;;;;;;1.40;0.90;;;21.60;51.20;;;;;;5039578;28;20082;-69
2023/05/12 09:16:30;;;;;;;1.63;0.98;;;21.50;51.10;;;;;;5040350;28;20032;-70
2023/05/12 09:18:57;;;;;;;1.60;0.90;;;21.60;51.70;;;;;;5045437;28;20026;-70
2023/05/12 09:21:25;;;;;;;1.35;0.90;;;21.50;51.20;;;;;;5039871;28;20051;-69
2023/05/12 09:23:52;;;;;;;1.95;0.90;;;21.50;51.20;;;;;;5039169;28;20507;-69
2023/05/12 09:26:18;;;;;;;1.80;0.98;;;21.60;51.20;;;;;;5038932;28;20049;-70
2023/05/12 09:28:43;;;;;;;2.17;1.10;;;21.60;51.30;;;;;;5041104;28;20491;-69
2023/05/12 09:31:23;;;;;;;1.23;0.85;;;21.50;51.20;;;;;;5039842;28;20026;-69
2023/05/12 09:33:50;;;;;;;1.85;1.00;;;21.60;51.30;;;;;;5038155;28;20108;-70
2023/05/12 09:36:18;;;;;;;2.45;1.02;;;21.50;51.30;;;;;;5041440;28;20057;-70
2023/05/12 09:38:44;;;;;;;1.65;1.00;;;21.50;51.30;;;;;;5039820;28;20099;-70
2023/05/12 09:41:09;;;;;;;1.73;1.10;;;21.50;51.30;;;;;;5042030;28;20025;-70
2023/05/12 09:43:36;;;;;;;4.53;1.48;;;21.50;51.30;;;;;;5039934;28;20150;-69
2023/05/12 09:46:05;;;;;;;2.50;1.23;;;21.50;51.30;;;;;;5041284;28;20081;-70
2023/05/12 09:48:31;;;;;;;3.25;1.55;;;21.50;51.40;;;;;;5037271;28;20103;-70
2023/05/12 09:50:57;;;;;;;3.58;1.58;;;21.50;51.40;;;;;;5038699;28;20061;-70
2023/05/12 09:53:23;;;;;;;3.55;1.73;;;21.50;51.50;;;;;;5042250;28;20039;-70
2023/05/12 09:55:49;;;;;;;3.90;1.60;;;21.50;51.50;;;;;;5041765;28;20025;-70
2023/05/12 09:58:19;;;;;;;5.13;1.63;;;21.50;51.50;;;;;;5034895;28;20029;-70
2023/05/12 10:00:46;;;;;;;5.80;2.05;;;21.60;51.60;;;;;;5038131;28;20534;-69
2023/05/12 10:03:16;;;;;;;3.20;1.60;;;21.50;51.50;;;;;;5040616;28;20037;-70
2023/05/12 10:05:57;;;;;;;3.30;1.80;;;21.50;51.60;;;;;;5037285;28;20040;-70
2023/05/12 10:08:35;;;;;;;3.38;1.70;;;21.50;51.60;;;;;;5037745;28;20484;-70
2023/05/12 10:11:03;;;;;;;3.92;1.90;;;21.50;51.60;;;;;;5037504;28;20033;-70
2023/05/12 10:13:29;;;;;;;3.58;1.92;;;21.50;51.60;;;;;;5039812;28;20476;-69
2023/05/12 10:15:56;;;;;;;3.50;1.80;;;21.50;51.60;;;;;;5038413;28;20474;-70
2023/05/12 10:18:23;;;;;;;3.22;1.80;;;21.50;51.60;;;;;;5036553;28;20049;-70
2023/05/12 10:20:51;;;;;;;4.53;1.88;;;21.50;51.50;;;;;;5038599;28;20075;-70
2023/05/12 10:23:17;;;;;;;3.33;1.67;;;21.50;51.60;;;;;;5040449;28;20410;-70
2023/05/12 10:25:43;;;;;;;4.38;1.80;;;21.50;51.60;;;;;;5041660;28;20148;-70
2023/05/12 10:28:10;;;;;;;4.75;1.90;;;21.50;51.60;;;;;;5036177;28;20120;-69
2023/05/12 10:30:37;;;;;;;3.53;1.58;;;21.50;51.60;;;;;;5037885;28;20377;-70
2023/05/12 10:33:04;;;;;;;3.00;1.50;;;21.50;51.60;;;;;;5039108;28;20041;-69
2023/05/12 10:35:34;;;;;;;3.97;1.98;;;21.50;51.70;;;;;;5038016;28;20021;-70
2023/05/12 10:38:08;;;;;;;4.28;1.80;;;21.50;51.70;;;;;;5036524;28;20056;-70
2023/05/12 10:40:34;;;;;;;3.80;1.83;;;21.60;51.70;;;;;;5038457;28;20365;-69
2023/05/12 10:43:00;;;;;;;3.75;1.88;;;21.50;51.70;;;;;;5037664;28;20041;-69
2023/05/12 10:45:26;;;;;;;3.67;1.80;;;21.50;51.70;;;;;;5038323;28;20025;-69
2023/05/12 10:47:51;;;;;;;4.93;1.73;;;21.50;51.70;;;;;;5038126;28;20385;-69
2023/05/12 10:50:27;;;;;;;4.40;1.88;;;21.50;51.70;;;;;;5037943;28;20025;-70
2023/05/12 10:52:54;;;;;;;4.57;1.90;;;21.50;51.70;;;;;;5038609;28;20029;-69
2023/05/12 10:55:33;;;;;;;3.80;1.65;;;21.50;51.70;;;;;;5066592;28;20437;-70
2023/05/12 10:58:06;;;;;;;;;;;21.50;51.70;;;;;;5037909;28;20025;-70
2023/05/12 11:00:41;;;;;;;4.38;1.70;;;21.50;51.80;;;;;;5038555;28;20014;-69
2023/05/12 11:03:11;;;;;;;4.38;2.00;;;21.50;51.70;;;;;;5037328;28;20603;-69
2023/05/12 11:05:37;;;;;;;4.50;1.88;;;21.50;51.70;;;;;;5037274;28;20110;-69
2023/05/12 11:08:03;;;;;;;3.95;2.10;;;21.50;51.70;;;;;;5037346;28;20044;-70
2023/05/12 11:10:29;;;;;;;4.32;1.85;;;21.60;51.80;;;;;;5039080;28;20021;-64
2023/05/12 11:12:55;;;;;;;3.60;2.08;;;21.50;51.70;;;;;;5037474;28;20025;-64
2023/05/12 11:15:21;;;;;;;3.45;1.60;;;21.50;51.70;;;;;;5038151;28;20040;-65
2023/05/12 11:17:47;;;;;;;3.22;1.77;;;21.50;51.70;;;;;;5066529;28;20039;-65
2023/05/12 11:20:24;;;;;;;3.22;1.75;;;21.50;51.70;;;;;;5033628;28;20033;-64
2023/05/12 11:22:49;;;;;;;3.45;1.65;;;21.50;51.70;;;;;;5035920;28;20056;-64
2023/05/12 11:25:15;;;;;;;3.20;1.95;;;21.50;51.70;;;;;;5034957;28;20517;-64
2023/05/12 11:27:49;;;;;;;4.22;2.10;;;21.50;51.70;;;;;;5038499;28;20029;-64
2023/05/12 11:30:15;;;;;;;4.90;1.80;;;21.60;51.80;;;;;;5040217;28;20628;-65
2023/05/12 11:32:41;;;;;;;3.63;1.90;;;21.50;51.80;;;;;;5038044;28;20107;-64
2023/05/12 11:35:11;;;;;;;4.35;2.10;;;21.50;51.80;;;;;;5036201;28;20113;-64
2023/05/12 11:37:42;;;;;;;4.55;2.00;;;21.50;51.80;;;;;;5052748;28;20630;-65
2023/05/12 11:40:21;;;;;;;3.55;1.88;;;21.50;51.80;;;;;;5035655;28;20022;-64
2023/05/12 11:42:50;;;;;;;3.78;1.80;;;21.50;51.90;;;;;;5038064;28;20027;-65
2023/05/12 11:45:28;;;;;;;3.90;2.00;;;21.50;51.90;;;;;;5037522;28;20033;-65
2023/05/12 11:48:10;;;;;;;4.38;1.80;;;21.50;51.90;;;;;;5039076;28;20490;-65
2023/05/12 11:50:42;;;;;;;3.30;1.65;;;21.50;51.90;;;;;;5033829;28;20072;-65
2023/05/12 11:53:13;;;;;;;4.28;1.80;;;21.50;51.90;;;;;;5034637;28;20032;-65
2023/05/12 11:55:50;;;;;;;3.30;1.90;;;21.50;51.90;;;;;;5036575;28;20014;-65
2023/05/12 11:58:21;;;;;;;5.55;2.15;;;21.50;51.90;;;;;;5039655;28;20108;-65
2023/05/12 12:00:47;;;;;;;4.20;1.85;;;21.50;51.90;;;;;;5036359;28;20021;-65
2023/05/12 12:03:14;;;;;;;4.55;2.10;;;21.50;51.90;;;;;;5037602;28;20028;-65
2023/05/12 12:05:42;;;;;;;4.13;1.92;;;21.50;52.40;;;;;;5035824;28;20040;-65
2023/05/12 12:08:14;;;;;;;4.00;1.92;;;21.50;51.80;;;;;;5035494;28;20117;-65
2023/05/12 12:10:44;;;;;;;3.95;1.85;;;21.50;51.80;;;;;;5037871;28;20807;-65
2023/05/12 12:13:11;;;;;;;3.65;1.80;;;21.50;51.90;;;;;;5035849;28;20029;-64
2023/05/12 12:15:36;;;;;;;4.15;1.90;;;21.50;51.90;;;;;;5034921;28;20094;-65
2023/05/12 12:18:02;;;;;;;4.15;2.05;;;21.50;51.90;;;;;;5037055;28;20029;-65
2023/05/12 12:20:28;;;;;;;3.60;1.80;;;21.50;51.90;;;;;;5037508;28;20054;-65
2023/05/12 12:22:54;;;;;;;3.72;1.88;;;21.50;51.80;;;;;;5041572;28;20029;-65
2023/05/12 12:25:20;;;;;;;3.28;1.88;;;21.50;51.90;;;;;;5036908;28;20086;-65
2023/05/12 12:27:46;;;;;;;2.83;1.65;;;21.50;51.80;;;;;;5038170;28;20028;-66
2023/05/12 12:30:14;;;;;;;3.60;1.90;;;21.50;51.80;;;;;;5037611;28;20045;-65
2023/05/12 12:32:39;;;;;;;4.13;1.90;;;21.50;51.90;;;;;;5037758;28;20034;-65
2023/05/12 12:35:06;;;;;;;3.72;1.80;;;21.50;51.80;;;;;;5045375;28;20040;-66
2023/05/12 12:37:32;;;;;;;3.25;1.80;;;21.50;51.80;;;;;;5048443;28;20040;-65
2023/05/12 12:39:58;;;;;;;3.75;2.03;;;21.50;51.90;;;;;;5042995;28;20029;-66
2023/05/12 12:42:23;;;;;;;3.22;1.80;;;21.50;51.80;;;;;;5040562;28;20041;-65
2023/05/12 12:44:50;;;;;;;3.83;1.98;;;21.50;51.80;;;;;;5042215;28;20389;-65